Time;durP1;ratioP1;P1;durP2;ratioP2;P2;SDS_P1;SDS_P2;PMS_P1;PMS_P2;Temp;Humidity;BMP_temperature;BMP_pressure;BME280_temperature;BME280_humidity;BME280_pressure;Samples;Min_cycle;Max_cycle;Signal;HPM_P1;HPM_P2
2021/05/11 00:01:00;;;;;;;1.00;0.90;;;;;;;;;;4851346;29;20242;-79
2021/05/11 00:03:28;;;;;;;2.97;1.17;;;;;;;;;;4841586;29;20238;-79
2021/05/11 00:05:56;;;;;;;2.10;0.90;;;;;;;;;;4862664;29;20249;-77
2021/05/11 00:08:23;;;;;;;2.77;1.17;;;;;;;;;;4847462;29;20234;-79
2021/05/11 00:10:52;;;;;;;1.63;1.10;;;;;;;;;;4841608;29;20235;-78
2021/05/11 00:13:21;;;;;;;1.30;1.10;;;;;;;;;;4861236;29;20625;-80
2021/05/11 00:15:48;;;;;;;2.27;1.33;;;;;;;;;;4841603;29;20233;-80
2021/05/11 00:18:16;;;;;;;2.10;1.10;;;;;;;;;;4844584;29;20254;-79
2021/05/11 00:20:44;;;;;;;2.10;1.10;;;;;;;;;;4846290;29;20234;-78
2021/05/11 00:23:11;;;;;;;3.53;1.13;;;;;;;;;;4869586;29;20614;-78
2021/05/11 00:25:39;;;;;;;3.63;1.20;;;;;;;;;;4857414;29;20238;-79
2021/05/11 00:28:07;;;;;;;2.97;1.17;;;;;;;;;;4843104;29;20245;-79
2021/05/11 00:30:36;;;;;;;3.20;1.10;;;;;;;;;;4860204;29;20231;-78
2021/05/11 00:33:08;;;;;;;2.97;1.30;;;;;;;;;;4846640;29;20249;-79
2021/05/11 00:35:36;;;;;;;2.00;1.30;;;;;;;;;;4848419;29;20607;-78
2021/05/11 00:38:04;;;;;;;2.37;1.40;;;;;;;;;;4862916;29;20241;-81
2021/05/11 00:40:31;;;;;;;1.77;1.20;;;;;;;;;;4853594;29;20732;-79
2021/05/11 00:42:59;;;;;;;5.20;1.50;;;;;;;;;;4850976;29;20227;-79
2021/05/11 00:45:27;;;;;;;2.03;1.20;;;;;;;;;;4846562;29;20295;-78
2021/05/11 00:47:55;;;;;;;3.10;1.30;;;;;;;;;;4831906;29;20241;-78
2021/05/11 00:50:24;;;;;;;3.60;1.33;;;;;;;;;;4848316;29;20226;-78
2021/05/11 00:52:52;;;;;;;2.93;1.40;;;;;;;;;;4859402;29;20532;-77
2021/05/11 00:55:20;;;;;;;2.33;1.30;;;;;;;;;;4856580;29;20234;-78
2021/05/11 00:57:48;;;;;;;3.43;2.57;;;;;;;;;;4861095;29;20230;-79
2021/05/11 01:00:16;;;;;;;2.10;1.30;;;;;;;;;;4845381;29;20233;-79
2021/05/11 01:02:44;;;;;;;3.27;1.47;;;;;;;;;;4853220;29;20626;-79
2021/05/11 01:05:13;;;;;;;2.57;1.57;;;;;;;;;;4845484;29;20229;-77
2021/05/11 01:07:41;;;;;;;3.10;1.60;;;;;;;;;;4856267;29;20238;-78
2021/05/11 01:10:10;;;;;;;2.13;1.80;;;;;;;;;;4847480;29;20237;-78
2021/05/11 01:12:37;;;;;;;3.07;2.30;;;;;;;;;;4839955;29;20234;-77
2021/05/11 01:15:06;;;;;;;1.43;1.20;;;;;;;;;;4845327;29;20705;-79
2021/05/11 01:17:36;;;;;;;5.00;1.67;;;;;;;;;;4849140;29;20227;-78
2021/05/11 01:20:06;;;;;;;4.40;1.40;;;;;;;;;;4855320;29;20222;-77
2021/05/11 01:22:53;;;;;;;1.50;1.23;;;;;;;;;;4841247;29;20233;-78
2021/05/11 01:25:24;;;;;;;3.20;1.57;;;;;;;;;;4843037;29;20261;-77
2021/05/11 01:28:05;;;;;;;1.83;1.20;;;;;;;;;;4862100;29;20236;-77
2021/05/11 01:50:04;;;;;;;2.37;1.60;;;;;;;;;;4852300;29;20773;-78
2021/05/11 01:52:44;;;;;;;2.47;1.50;;;;;;;;;;4861416;29;20618;-78
2021/05/11 02:22:54;;;;;;;3.87;2.90;;;;;;;;;;4871128;29;20463;-79
2021/05/11 02:25:22;;;;;;;4.03;2.60;;;;;;;;;;4843650;29;20245;-81
2021/05/11 02:27:51;;;;;;;3.40;2.50;;;;;;;;;;4867951;29;20233;-79
2021/05/11 02:30:19;;;;;;;4.30;3.03;;;;;;;;;;4847855;29;20231;-77
2021/05/11 02:32:47;;;;;;;4.00;3.10;;;;;;;;;;4856243;29;20223;-77
2021/05/11 02:35:16;;;;;;;3.27;2.97;;;;;;;;;;4867164;29;20743;-79
2021/05/11 02:37:44;;;;;;;3.73;3.43;;;;;;;;;;4841124;29;20226;-79
2021/05/11 02:40:14;;;;;;;4.93;3.40;;;;;;;;;;4847032;29;20242;-79
2021/05/11 02:42:43;;;;;;;4.80;3.50;;;;;;;;;;4867393;29;20234;-78
2021/05/11 02:45:13;;;;;;;7.80;4.23;;;;;;;;;;4863555;29;20225;-78
2021/05/11 02:47:51;;;;;;;4.90;4.27;;;;;;;;;;4883835;29;20233;-76
2021/05/11 02:50:20;;;;;;;5.70;4.90;;;;;;;;;;4873626;29;20230;-78
2021/05/11 02:52:48;;;;;;;7.27;4.80;;;;;;;;;;4874163;29;20218;-80
2021/05/11 02:55:17;;;;;;;5.63;5.03;;;;;;;;;;4875260;29;20229;-77
2021/05/11 02:57:45;;;;;;;5.20;4.70;;;;;;;;;;4870366;29;20237;-80
2021/05/11 03:00:16;;;;;;;5.80;5.20;;;;;;;;;;4851322;29;20230;-78
2021/05/11 03:02:44;;;;;;;5.93;5.33;;;;;;;;;;4858208;29;20230;-78
2021/05/11 03:05:13;;;;;;;6.10;5.50;;;;;;;;;;4866793;29;20230;-78
2021/05/11 03:07:40;;;;;;;5.70;4.80;;;;;;;;;;4860406;29;20249;-79
2021/05/11 03:10:10;;;;;;;6.80;4.93;;;;;;;;;;4863441;29;20234;-78
2021/05/11 03:12:38;;;;;;;7.70;6.17;;;;;;;;;;4864426;29;20242;-77
2021/05/11 03:15:07;;;;;;;7.27;6.43;;;;;;;;;;4867512;29;20230;-77
2021/05/11 03:17:36;;;;;;;10.40;6.27;;;;;;;;;;4838559;29;20235;-77
2021/05/11 03:20:05;;;;;;;9.73;6.77;;;;;;;;;;4855233;29;20242;-78
2021/05/11 03:22:33;;;;;;;8.30;6.43;;;;;;;;;;4850071;29;21844;-77
2021/05/11 03:25:02;;;;;;;7.07;6.10;;;;;;;;;;4848406;29;20751;-78
2021/05/11 03:27:30;;;;;;;7.80;6.90;;;;;;;;;;4867687;29;20262;-78
2021/05/11 03:29:57;;;;;;;7.13;6.03;;;;;;;;;;4865519;29;20604;-77
2021/05/11 03:32:25;;;;;;;8.07;6.43;;;;;;;;;;4868399;29;20242;-79
2021/05/11 03:34:53;;;;;;;8.63;6.20;;;;;;;;;;4865373;29;20258;-79
2021/05/11 03:37:22;;;;;;;7.80;6.70;;;;;;;;;;4851938;29;20226;-78
2021/05/11 03:39:49;;;;;;;7.87;6.47;;;;;;;;;;4860842;29;20612;-77
2021/05/11 03:42:20;;;;;;;7.33;6.60;;;;;;;;;;4850549;29;20238;-78
2021/05/11 03:44:51;;;;;;;7.93;7.03;;;;;;;;;;4863615;29;20704;-78
2021/05/11 03:47:21;;;;;;;7.10;6.40;;;;;;;;;;4856414;29;20588;-79
2021/05/11 03:49:49;;;;;;;7.20;5.77;;;;;;;;;;4874223;29;20245;-79
2021/05/11 03:52:18;;;;;;;6.87;5.67;;;;;;;;;;4860964;29;20240;-78
2021/05/11 03:54:46;;;;;;;6.97;5.53;;;;;;;;;;4868436;29;20242;-78
2021/05/11 03:57:14;;;;;;;6.50;5.77;;;;;;;;;;4858650;29;20241;-77
2021/05/11 03:59:42;;;;;;;6.43;4.83;;;;;;;;;;4849246;29;20238;-78
2021/05/11 04:02:10;;;;;;;10.77;8.77;;;;;;;;;;4850433;29;20316;-79
2021/05/11 04:04:38;;;;;;;10.67;9.07;;;;;;;;;;4844497;29;20620;-78
2021/05/11 04:07:07;;;;;;;10.83;8.53;;;;;;;;;;4865164;29;20234;-78
2021/05/11 04:09:41;;;;;;;9.40;8.30;;;;;;;;;;4868404;29;20236;-77
2021/05/11 04:17:44;;;;;;;9.13;8.13;;;;;;;;;;4865457;29;20229;-78
2021/05/11 04:20:13;;;;;;;9.53;7.77;;;;;;;;;;4860114;29;20226;-79
2021/05/11 04:22:41;;;;;;;10.33;8.40;;;;;;;;;;4850835;29;20234;-78
2021/05/11 04:25:11;;;;;;;10.10;7.80;;;;;;;;;;4860323;29;20234;-78
2021/05/11 04:27:39;;;;;;;9.27;8.03;;;;;;;;;;4854850;29;20245;-77
2021/05/11 04:30:09;;;;;;;9.83;8.83;;;;;;;;;;4863598;29;20238;-79
2021/05/11 04:32:37;;;;;;;9.47;7.67;;;;;;;;;;4867328;29;20538;-78
2021/05/11 04:35:06;;;;;;;8.93;8.03;;;;;;;;;;4856513;29;20237;-78
2021/05/11 04:37:34;;;;;;;9.63;8.17;;;;;;;;;;4871340;29;20230;-78
2021/05/11 04:40:03;;;;;;;8.70;7.50;;;;;;;;;;4854942;29;20795;-77
2021/05/11 04:42:32;;;;;;;8.77;7.87;;;;;;;;;;4864648;29;20711;-80
2021/05/11 04:45:00;;;;;;;7.70;6.90;;;;;;;;;;4869626;29;20249;-77
2021/05/11 04:47:45;;;;;;;7.97;6.67;;;;;;;;;;4860970;29;20233;-80
2021/05/11 04:50:15;;;;;;;8.00;6.87;;;;;;;;;;4875106;29;20240;-79
2021/05/11 04:52:44;;;;;;;7.67;6.60;;;;;;;;;;4856478;29;20238;-79
2021/05/11 04:55:13;;;;;;;9.63;7.53;;;;;;;;;;4865951;29;20417;-77
2021/05/11 04:57:42;;;;;;;10.23;8.27;;;;;;;;;;4862868;29;20292;-78
2021/05/11 05:00:12;;;;;;;8.47;7.40;;;;;;;;;;4855697;29;20272;-78
2021/05/11 05:02:42;;;;;;;8.63;7.70;;;;;;;;;;4862924;29;20243;-79
2021/05/11 05:05:11;;;;;;;8.63;7.33;;;;;;;;;;4856314;29;20234;-77
2021/05/11 05:07:39;;;;;;;8.90;8.00;;;;;;;;;;4867298;29;20226;-79
2021/05/11 05:10:09;;;;;;;7.87;7.07;;;;;;;;;;4865797;29;20249;-76
2021/05/11 05:12:38;;;;;;;8.30;7.23;;;;;;;;;;4870458;29;20613;-77
2021/05/11 05:15:07;;;;;;;8.13;7.33;;;;;;;;;;4853832;29;20241;-77
2021/05/11 05:17:35;;;;;;;9.03;7.70;;;;;;;;;;4850108;29;20235;-79
2021/05/11 05:20:04;;;;;;;8.53;7.73;;;;;;;;;;4862843;29;20243;-76
2021/05/11 05:22:32;;;;;;;12.13;8.43;;;;;;;;;;4866205;29;20237;-78
2021/05/11 05:25:09;;;;;;;9.17;8.07;;;;;;;;;;4865310;29;20252;-77
2021/05/11 05:27:44;;;;;;;9.33;7.80;;;;;;;;;;4870811;29;20225;-76
2021/05/11 05:30:13;;;;;;;7.97;7.17;;;;;;;;;;4846010;29;20245;-78
2021/05/11 05:32:41;;;;;;;8.80;7.83;;;;;;;;;;4853000;29;20677;-78
2021/05/11 05:35:10;;;;;;;9.23;7.60;;;;;;;;;;4853179;29;20230;-79
2021/05/11 05:37:42;;;;;;;8.47;7.63;;;;;;;;;;4846221;29;20242;-78
2021/05/11 05:40:13;;;;;;;7.57;6.80;;;;;;;;;;4862844;29;20233;-78
2021/05/11 05:42:41;;;;;;;8.50;7.40;;;;;;;;;;4846761;29;20257;-77
2021/05/11 05:45:10;;;;;;;8.70;7.73;;;;;;;;;;4863575;29;20237;-77
2021/05/11 05:47:50;;;;;;;8.07;7.23;;;;;;;;;;4863911;29;20238;-80
2021/05/11 05:50:19;;;;;;;8.00;7.00;;;;;;;;;;4849683;29;20230;-79
2021/05/11 05:53:00;;;;;;;8.27;7.43;;;;;;;;;;4860733;29;20244;-78
2021/05/11 05:55:28;;;;;;;7.07;6.37;;;;;;;;;;4867839;29;20249;-78
2021/05/11 05:57:56;;;;;;;7.57;6.87;;;;;;;;;;4855793;29;21764;-78
2021/05/11 06:00:25;;;;;;;8.13;7.27;;;;;;;;;;4845694;29;20244;-78
2021/05/11 06:02:55;;;;;;;9.57;6.73;;;;;;;;;;4851136;29;20257;-77
2021/05/11 06:05:23;;;;;;;7.60;6.67;;;;;;;;;;4862607;29;20708;-78
2021/05/11 06:07:52;;;;;;;7.17;6.23;;;;;;;;;;4850960;29;20233;-81
2021/05/11 06:10:20;;;;;;;6.60;6.00;;;;;;;;;;4844652;29;20230;-76
2021/05/11 06:12:52;;;;;;;8.60;6.57;;;;;;;;;;4847369;29;20623;-78
2021/05/11 06:18:07;;;;;;;7.73;6.90;;;;;;;;;;4830390;29;20786;-76
2021/05/11 06:20:35;;;;;;;8.53;7.27;;;;;;;;;;4859324;29;20236;-78
2021/05/11 06:23:03;;;;;;;9.77;7.33;;;;;;;;;;4850207;29;20237;-76
2021/05/11 06:25:31;;;;;;;6.53;5.93;;;;;;;;;;4848583;29;20231;-78
2021/05/11 06:28:01;;;;;;;6.80;6.10;;;;;;;;;;4848842;29;20239;-76
2021/05/11 06:30:30;;;;;;;9.47;6.13;;;;;;;;;;4843674;29;20928;-77
2021/05/11 06:32:58;;;;;;;6.40;5.30;;;;;;;;;;4847149;29;20240;-77
2021/05/11 06:35:29;;;;;;;9.37;5.10;;;;;;;;;;4858094;29;20241;-78
2021/05/11 06:37:58;;;;;;;6.93;5.20;;;;;;;;;;4855622;29;20234;-78
2021/05/11 06:40:27;;;;;;;5.20;4.80;;;;;;;;;;4834919;29;20241;-77
2021/05/11 06:42:57;;;;;;;4.97;4.47;;;;;;;;;;4842206;29;20245;-78
2021/05/11 06:46:04;;;;;;;4.83;4.03;;;;;;;;;;4840124;29;20701;-78
2021/05/11 06:48:33;;;;;;;4.67;4.27;;;;;;;;;;4850452;29;20230;-77
2021/05/11 06:53:51;;;;;;;5.10;4.60;;;;;;;;;;4868005;29;20241;-78
2021/05/11 06:56:19;;;;;;;5.33;4.50;;;;;;;;;;4865807;29;20620;-80
2021/05/11 06:58:48;;;;;;;6.97;4.70;;;;;;;;;;4852210;29;20231;-77
2021/05/11 07:01:19;;;;;;;4.53;4.13;;;;;;;;;;4837495;29;20258;-78
2021/05/11 07:03:48;;;;;;;5.00;4.50;;;;;;;;;;4852106;29;20234;-79
2021/05/11 07:06:18;;;;;;;4.77;4.27;;;;;;;;;;4844418;29;20720;-79
2021/05/11 07:08:51;;;;;;;5.80;5.20;;;;;;;;;;4858751;29;20241;-77
2021/05/11 07:13:05;;;;;;;4.47;4.07;;;;;;;;;;4858043;29;20227;-77
2021/05/11 07:14:16;;;;;;;5.10;4.53;;;;;;;;;;4840288;29;20237;-77
2021/05/11 07:16:45;;;;;;;7.43;4.70;;;;;;;;;;4831721;29;20245;-79
2021/05/11 07:19:14;;;;;;;4.73;4.23;;;;;;;;;;4845120;29;20254;-79
2021/05/11 07:21:42;;;;;;;4.37;3.87;;;;;;;;;;4843100;29;20638;-79
2021/05/11 07:24:11;;;;;;;4.47;4.07;;;;;;;;;;4866637;29;20238;-77
2021/05/11 07:26:57;;;;;;;5.57;4.20;;;;;;;;;;4848926;29;20241;-78
2021/05/11 07:29:38;;;;;;;4.40;3.90;;;;;;;;;;4840620;29;20262;-79
2021/05/11 07:32:06;;;;;;;3.30;3.00;;;;;;;;;;4861122;29;20243;-78
2021/05/11 07:34:40;;;;;;;5.23;3.37;;;;;;;;;;4859181;29;20238;-78
2021/05/11 07:37:09;;;;;;;4.23;3.33;;;;;;;;;;4854592;29;20244;-80
2021/05/11 07:39:38;;;;;;;6.73;4.20;;;;;;;;;;4850681;29;20237;-79
2021/05/11 07:42:07;;;;;;;3.10;2.90;;;;;;;;;;4853355;29;20224;-79
2021/05/11 07:44:38;;;;;;;3.87;3.57;;;;;;;;;;4843581;29;20800;-79
2021/05/11 07:47:11;;;;;;;4.57;4.00;;;;;;;;;;4849495;29;20238;-79
2021/05/11 07:50:02;;;;;;;4.30;3.90;;;;;;;;;;4821855;29;20226;-78
2021/05/11 08:14:40;;;;;;;3.90;3.50;;;;;;;;;;4837045;29;20230;-77
2021/05/11 08:17:08;;;;;;;3.77;3.40;;;;;;;;;;4851178;29;20233;-78
2021/05/11 08:27:57;;;;;;;2.20;2.03;;;;;;;;;;4860306;29;20226;-78
2021/05/11 08:30:27;;;;;;;2.80;2.57;;;;;;;;;;4849607;29;20241;-78
2021/05/11 08:32:55;;;;;;;2.40;2.20;;;;;;;;;;4824387;29;20237;-78
2021/05/11 08:35:23;;;;;;;3.20;2.20;;;;;;;;;;4840926;29;20238;-78
2021/05/11 08:37:51;;;;;;;2.43;2.23;;;;;;;;;;4839142;29;20709;-78
2021/05/11 08:40:20;;;;;;;2.60;2.40;;;;;;;;;;4836171;29;20234;-77
2021/05/11 08:42:48;;;;;;;3.23;2.50;;;;;;;;;;4851422;29;20234;-79
2021/05/11 08:45:17;;;;;;;2.60;2.40;;;;;;;;;;4855689;29;21843;-80
2021/05/11 08:47:49;;;;;;;2.33;2.13;;;;;;;;;;4843192;29;20237;-80
2021/05/11 08:50:19;;;;;;;2.83;2.40;;;;;;;;;;4857142;29;20237;-78
2021/05/11 09:24:44;;;;;;;4.93;2.63;;;;;;;;;;4846804;29;20241;-79
2021/05/11 09:27:20;;;;;;;2.70;2.50;;;;;;;;;;4862269;29;20238;-78
2021/05/11 09:30:06;;;;;;;2.77;2.30;;;;;;;;;;4853234;29;20230;-78
2021/05/11 09:32:44;;;;;;;2.50;2.00;;;;;;;;;;4852933;29;20635;-80
2021/05/11 09:45:07;;;;;;;5.20;2.67;;;;;;;;;;4835101;29;20230;-80
2021/05/11 10:40:29;;;;;;;4.10;3.70;;;;;;;;;;4872048;29;20258;-80
2021/05/11 10:48:35;;;;;;;4.87;4.47;;;;;;;;;;4868591;29;20234;-79
2021/05/11 10:51:06;;;;;;;4.30;3.90;;;;;;;;;;4859873;29;21317;-80
2021/05/11 10:53:44;;;;;;;6.43;4.20;;;;;;;;;;4869028;29;20257;-80
2021/05/11 10:56:51;;;;;;;6.13;3.70;;;;;;;;;;4856761;29;20226;-78
2021/05/11 10:59:39;;;;;;;4.33;3.40;;;;;;;;;;4864979;29;20234;-77
2021/05/11 11:02:35;;;;;;;5.27;3.33;;;;;;;;;;4853517;29;20234;-80
2021/05/11 11:05:05;;;;;;;5.87;3.50;;;;;;;;;;4836806;29;20237;-80
2021/05/11 11:07:38;;;;;;;4.20;3.17;;;;;;;;;;4867227;29;20237;-79
2021/05/11 11:10:08;;;;;;;4.03;2.63;;;;;;;;;;4865630;29;20736;-78
2021/05/11 11:12:42;;;;;;;5.27;1.97;;;;;;;;;;4863336;29;20242;-79
2021/05/11 11:15:16;;;;;;;2.60;1.60;;;;;;;;;;4866217;29;20234;-77
2021/05/11 11:17:49;;;;;;;1.70;1.60;;;;;;;;;;4854843;29;20236;-80
2021/05/11 11:20:19;;;;;;;2.03;1.83;;;;;;;;;;4862226;29;20234;-78
2021/05/11 11:26:07;;;;;;;1.33;1.10;;;;;;;;;;4865346;29;20241;-78
2021/05/11 11:28:35;;;;;;;1.10;0.83;;;;;;;;;;4850617;29;20618;-78
2021/05/11 11:31:23;;;;;;;10.40;1.20;;;;;;;;;;4834524;29;20593;-80
2021/05/11 11:33:51;;;;;;;0.70;0.70;;;;;;;;;;4851162;29;20229;-80
2021/05/11 11:36:32;;;;;;;2.93;1.10;;;;;;;;;;4853554;29;20443;-80
2021/05/11 11:39:04;;;;;;;3.40;1.03;;;;;;;;;;4870892;29;20246;-80
2021/05/11 11:41:34;;;;;;;1.03;0.83;;;;;;;;;;4853814;29;20226;-81
2021/05/11 11:44:02;;;;;;;0.67;0.67;;;;;;;;;;4870151;29;20230;-82
2021/05/11 11:46:31;;;;;;;1.00;0.90;;;;;;;;;;4855097;29;20245;-79
2021/05/11 11:49:01;;;;;;;1.50;0.97;;;;;;;;;;4855619;29;20238;-80
2021/05/11 11:51:32;;;;;;;1.07;0.97;;;;;;;;;;4862117;29;20492;-79
2021/05/11 11:54:11;;;;;;;0.80;0.80;;;;;;;;;;4866590;29;20229;-80
2021/05/11 11:59:21;;;;;;;2.67;1.10;;;;;;;;;;4866787;29;20245;-83
2021/05/11 12:02:01;;;;;;;2.53;0.97;;;;;;;;;;4866502;29;20242;-82
2021/05/11 12:04:30;;;;;;;2.90;1.70;;;;;;;;;;4852647;29;20237;-81
2021/05/11 12:07:04;;;;;;;2.90;2.00;;;;;;;;;;4869346;29;20233;-83
2021/05/11 12:09:32;;;;;;;2.40;1.50;;;;;;;;;;4855210;29;20716;-80
2021/05/11 12:12:03;;;;;;;2.57;1.50;;;;;;;;;;4866237;29;20245;-80
2021/05/11 12:14:36;;;;;;;2.43;1.50;;;;;;;;;;4856789;29;20234;-82
2021/05/11 12:17:05;;;;;;;2.20;1.50;;;;;;;;;;4835826;29;20249;-79
2021/05/11 12:19:34;;;;;;;4.00;2.00;;;;;;;;;;4846148;29;20246;-80
2021/05/11 12:22:05;;;;;;;3.37;2.30;;;;;;;;;;4863335;29;20234;-80
2021/05/11 12:24:34;;;;;;;5.93;2.67;;;;;;;;;;4863127;29;20226;-78
2021/05/11 12:27:13;;;;;;;3.23;2.07;;;;;;;;;;4853282;29;20421;-83
2021/05/11 12:30:02;;;;;;;3.73;1.80;;;;;;;;;;4867116;29;20853;-81
2021/05/11 12:32:32;;;;;;;1.47;1.10;;;;;;;;;;4847140;29;20234;-81
2021/05/11 12:35:10;;;;;;;1.30;1.10;;;;;;;;;;4843907;29;20240;-80
2021/05/11 12:37:50;;;;;;;1.77;1.00;;;;;;;;;;4866477;29;20611;-80
2021/05/11 12:40:26;;;;;;;1.23;1.00;;;;;;;;;;4850520;29;20230;-81
2021/05/11 12:42:56;;;;;;;1.30;0.87;;;;;;;;;;4865012;29;20605;-80
2021/05/11 12:45:25;;;;;;;0.80;0.80;;;;;;;;;;4840835;29;20235;-80
2021/05/11 12:48:00;;;;;;;0.70;0.63;;;;;;;;;;4848931;29;20608;-80
2021/05/11 12:50:31;;;;;;;0.90;0.63;;;;;;;;;;4824855;29;20237;-80
2021/05/11 12:53:04;;;;;;;0.70;0.70;;;;;;;;;;4842842;29;20230;-80
2021/05/11 12:55:44;;;;;;;1.50;0.90;;;;;;;;;;4866995;29;20241;-80
2021/05/11 12:58:25;;;;;;;1.20;0.87;;;;;;;;;;4866133;29;20244;-80
2021/05/11 13:01:02;;;;;;;0.87;0.87;;;;;;;;;;4866424;29;20238;-80
2021/05/11 13:03:48;;;;;;;2.23;1.00;;;;;;;;;;4862232;29;20246;-80
2021/05/11 13:09:34;;;;;;;0.87;0.83;;;;;;;;;;4868346;29;20248;-79
2021/05/11 13:15:10;;;;;;;0.70;0.70;;;;;;;;;;4850953;29;20238;-80
2021/05/11 13:20:38;;;;;;;0.70;0.70;;;;;;;;;;4845197;29;20234;-81
2021/05/11 13:23:18;;;;;;;2.13;0.80;;;;;;;;;;4854854;29;20237;-78
2021/05/11 13:25:49;;;;;;;0.70;0.70;;;;;;;;;;4862191;29;20230;-80
2021/05/11 13:28:22;;;;;;;1.00;0.77;;;;;;;;;;4851183;29;20230;-81
2021/05/11 13:30:55;;;;;;;1.20;0.70;;;;;;;;;;4852455;29;20230;-81
2021/05/11 13:33:46;;;;;;;1.00;0.70;;;;;;;;;;4870716;29;20226;-80
2021/05/11 13:36:15;;;;;;;0.70;0.60;;;;;;;;;;4844662;29;23721;-82
2021/05/11 13:38:42;;;;;;;0.80;0.80;;;;;;;;;;4864481;29;20250;-82
2021/05/11 13:41:11;;;;;;;0.70;0.70;;;;;;;;;;4852003;29;20233;-83
2021/05/11 13:43:39;;;;;;;0.80;0.70;;;;;;;;;;4842414;29;20237;-80
2021/05/11 13:46:07;;;;;;;1.50;0.80;;;;;;;;;;4837376;29;20239;-81
2021/05/11 13:48:38;;;;;;;1.10;0.80;;;;;;;;;;4846196;29;20245;-80
2021/05/11 13:51:12;;;;;;;0.97;0.70;;;;;;;;;;4860168;29;20238;-81
2021/05/11 13:53:43;;;;;;;2.50;1.00;;;;;;;;;;4864872;29;20617;-81
2021/05/11 13:56:22;;;;;;;0.90;0.77;;;;;;;;;;4852995;29;20229;-80
2021/05/11 14:04:37;;;;;;;0.67;0.67;;;;;;;;;;4857269;29;20242;-81
2021/05/11 14:07:06;;;;;;;0.80;0.80;;;;;;;;;;4847773;29;20241;-79
2021/05/11 14:09:35;;;;;;;0.80;0.80;;;;;;;;;;4873899;29;20241;-81
2021/05/11 14:12:03;;;;;;;1.00;0.87;;;;;;;;;;4860572;29;20492;-81
2021/05/11 14:14:32;;;;;;;1.00;0.90;;;;;;;;;;4867362;29;20238;-82
2021/05/11 14:17:00;;;;;;;1.13;1.00;;;;;;;;;;4844051;29;20234;-80
2021/05/11 14:19:30;;;;;;;2.37;1.20;;;;;;;;;;4834642;29;20227;-81
2021/05/11 14:22:00;;;;;;;1.60;1.17;;;;;;;;;;4867747;29;20234;-81
2021/05/11 14:24:28;;;;;;;1.60;0.80;;;;;;;;;;4852151;29;20238;-81
2021/05/11 14:26:56;;;;;;;1.47;1.07;;;;;;;;;;4869302;29;20248;-80
2021/05/11 14:29:26;;;;;;;0.80;0.80;;;;;;;;;;4824286;29;20240;-82
2021/05/11 14:31:54;;;;;;;1.30;0.67;;;;;;;;;;4851329;29;20237;-80
2021/05/11 14:34:26;;;;;;;1.63;0.77;;;;;;;;;;4856951;29;20226;-81
2021/05/11 14:36:54;;;;;;;1.83;0.70;;;;;;;;;;4856849;29;20226;-81
2021/05/11 14:39:24;;;;;;;1.37;0.70;;;;;;;;;;4873729;29;20700;-83
2021/05/11 14:41:57;;;;;;;0.87;0.80;;;;;;;;;;4871247;29;20315;-81
2021/05/11 14:44:27;;;;;;;0.70;0.70;;;;;;;;;;4864436;29;20245;-83
2021/05/11 14:46:56;;;;;;;1.07;0.90;;;;;;;;;;4851148;29;20234;-81
2021/05/11 14:49:26;;;;;;;0.93;0.83;;;;;;;;;;4868237;29;20245;-81
2021/05/11 14:51:54;;;;;;;1.43;0.80;;;;;;;;;;4868887;29;20222;-82
2021/05/11 14:54:22;;;;;;;0.70;0.70;;;;;;;;;;4858187;29;20230;-84
2021/05/11 14:56:51;;;;;;;0.70;0.70;;;;;;;;;;4870568;29;20233;-85
2021/05/11 15:02:47;;;;;;;1.13;0.97;;;;;;;;;;1017266;23;20554;-84
2021/05/11 15:05:16;;;;;;;1.00;0.73;;;;;;;;;;4900246;29;20228;-81
2021/05/11 15:07:48;;;;;;;1.13;1.07;;;;;;;;;;4889418;29;20236;-84
2021/05/11 15:10:17;;;;;;;0.80;0.80;;;;;;;;;;4865599;29;20235;-80
2021/05/11 15:12:45;;;;;;;2.70;0.90;;;;;;;;;;4870808;29;20247;-81
2021/05/11 15:15:16;;;;;;;1.10;1.00;;;;;;;;;;4900972;29;20229;-82
2021/05/11 15:18:01;;;;;;;1.47;0.90;;;;;;;;;;4892512;29;20610;-85
2021/05/11 15:20:31;;;;;;;1.33;0.93;;;;;;;;;;4894151;29;20593;-81
2021/05/11 15:23:05;;;;;;;1.23;0.90;;;;;;;;;;4873675;29;20233;-83
2021/05/11 15:25:33;;;;;;;1.37;0.80;;;;;;;;;;4874097;29;20240;-82
2021/05/11 15:28:03;;;;;;;1.90;1.40;;;;;;;;;;4893674;29;20244;-83
2021/05/11 15:30:32;;;;;;;1.67;1.10;;;;;;;;;;4896580;29;20220;-84
2021/05/11 15:33:00;;;;;;;1.23;0.80;;;;;;;;;;4889512;29;20240;-83
2021/05/11 15:35:35;;;;;;;1.20;1.10;;;;;;;;;;4890543;29;20221;-82
2021/05/11 15:38:05;;;;;;;2.13;1.00;;;;;;;;;;4889019;29;20232;-82
2021/05/11 15:40:36;;;;;;;1.50;1.10;;;;;;;;;;4878240;29;20695;-83
2021/05/11 15:43:04;;;;;;;1.20;1.10;;;;;;;;;;4887881;29;20232;-83
2021/05/11 15:45:33;;;;;;;1.10;1.00;;;;;;;;;;4894701;29;20243;-82
2021/05/11 15:48:03;;;;;;;1.07;0.93;;;;;;;;;;4869065;29;20526;-83
2021/05/11 15:50:34;;;;;;;2.30;1.17;;;;;;;;;;4866131;29;20224;-81
2021/05/11 15:53:04;;;;;;;1.47;1.03;;;;;;;;;;4882458;29;20228;-83
2021/05/11 15:55:34;;;;;;;1.20;1.10;;;;;;;;;;4891116;29;20226;-83
2021/05/11 15:58:02;;;;;;;4.70;1.60;;;;;;;;;;4871070;29;20623;-84
2021/05/11 16:00:31;;;;;;;2.53;1.13;;;;;;;;;;4895919;29;20231;-84
2021/05/11 16:03:02;;;;;;;1.83;1.37;;;;;;;;;;4896635;29;20244;-79
2021/05/11 16:05:34;;;;;;;1.77;1.20;;;;;;;;;;4887397;29;20243;-82
2021/05/11 16:08:04;;;;;;;2.13;1.20;;;;;;;;;;4877968;29;20224;-83
2021/05/11 16:10:32;;;;;;;2.03;1.00;;;;;;;;;;4913480;29;20221;-84
2021/05/11 16:13:00;;;;;;;1.43;1.07;;;;;;;;;;4901082;29;20225;-80
2021/05/11 16:15:29;;;;;;;1.37;1.20;;;;;;;;;;4890256;29;20233;-82
2021/05/11 16:17:57;;;;;;;1.33;1.23;;;;;;;;;;4891927;29;20232;-81
2021/05/11 16:20:25;;;;;;;1.20;1.00;;;;;;;;;;4885218;29;20237;-81
2021/05/11 16:22:54;;;;;;;1.20;1.10;;;;;;;;;;4875859;29;21296;-82
2021/05/11 16:25:24;;;;;;;1.27;0.97;;;;;;;;;;4888015;29;20239;-84
2021/05/11 16:27:52;;;;;;;2.83;1.00;;;;;;;;;;4887095;29;20225;-81
2021/05/11 16:30:21;;;;;;;2.10;1.20;;;;;;;;;;4867438;29;20229;-81
2021/05/11 16:32:49;;;;;;;2.93;1.30;;;;;;;;;;4889773;29;20679;-83
2021/05/11 16:35:18;;;;;;;2.13;1.10;;;;;;;;;;4873550;29;20233;-81
2021/05/11 16:37:46;;;;;;;1.47;1.30;;;;;;;;;;4872439;29;20236;-81
2021/05/11 16:40:15;;;;;;;1.30;1.20;;;;;;;;;;4881847;29;20225;-82
2021/05/11 16:42:44;;;;;;;1.20;1.10;;;;;;;;;;4916390;29;20260;-84
2021/05/11 16:45:13;;;;;;;1.60;1.13;;;;;;;;;;4872617;29;20225;-80
2021/05/11 16:47:54;;;;;;;2.43;1.00;;;;;;;;;;4875662;29;20265;-83
2021/05/11 16:50:23;;;;;;;1.10;1.00;;;;;;;;;;4892673;29;20226;-82
2021/05/11 16:52:53;;;;;;;1.00;0.90;;;;;;;;;;4912071;29;20232;-84
2021/05/11 16:55:23;;;;;;;1.30;1.17;;;;;;;;;;4889649;29;20220;-84
2021/05/11 16:57:52;;;;;;;2.33;1.23;;;;;;;;;;4921337;29;20220;-83
2021/05/11 17:00:21;;;;;;;2.27;1.33;;;;;;;;;;4883464;29;20280;-81
2021/05/11 17:02:51;;;;;;;1.23;1.13;;;;;;;;;;4869318;29;20243;-81
2021/05/11 17:05:21;;;;;;;1.30;1.03;;;;;;;;;;4896927;29;20228;-81
2021/05/11 17:07:49;;;;;;;1.70;1.23;;;;;;;;;;4903714;29;20220;-86
2021/05/11 17:10:18;;;;;;;2.00;1.20;;;;;;;;;;4867972;29;20229;-83
2021/05/11 17:12:46;;;;;;;1.27;0.90;;;;;;;;;;4887854;29;20229;-82
2021/05/11 17:15:16;;;;;;;1.20;1.10;;;;;;;;;;4860010;29;20319;-81
2021/05/11 17:17:46;;;;;;;0.90;0.90;;;;;;;;;;4883070;29;20236;-85
2021/05/11 17:20:15;;;;;;;0.93;0.90;;;;;;;;;;4897638;29;20228;-80
2021/05/11 17:22:43;;;;;;;1.53;1.30;;;;;;;;;;4877413;29;20605;-81
2021/05/11 17:25:12;;;;;;;1.93;1.33;;;;;;;;;;4895249;29;20722;-83
2021/05/11 17:27:41;;;;;;;1.93;1.17;;;;;;;;;;4869988;29;20232;-80
2021/05/11 17:30:10;;;;;;;0.97;0.87;;;;;;;;;;4887493;29;20235;-80
2021/05/11 17:32:41;;;;;;;1.10;0.83;;;;;;;;;;4884843;29;21746;-80
2021/05/11 17:35:11;;;;;;;1.23;1.00;;;;;;;;;;4881549;29;20716;-80
2021/05/11 17:37:39;;;;;;;1.30;1.20;;;;;;;;;;4857652;29;20237;-80
2021/05/11 17:40:11;;;;;;;1.10;1.00;;;;;;;;;;4868546;29;20240;-80
2021/05/11 17:42:39;;;;;;;0.93;0.87;;;;;;;;;;4871318;29;20608;-80
2021/05/11 17:45:09;;;;;;;4.60;3.67;;;;;;;;;;4864030;29;20221;-80
2021/05/11 17:47:37;;;;;;;3.20;2.70;;;;;;;;;;4885789;29;20230;-80
2021/05/11 17:50:07;;;;;;;1.03;0.70;;;;;;;;;;4881845;29;20236;-82
2021/05/11 17:52:35;;;;;;;1.47;0.90;;;;;;;;;;4886362;29;20239;-80
2021/05/11 17:55:04;;;;;;;0.97;0.77;;;;;;;;;;4886561;29;20216;-80
2021/05/11 17:57:32;;;;;;;1.40;0.90;;;;;;;;;;4871921;29;20719;-79
2021/05/11 18:00:00;;;;;;;2.10;0.90;;;;;;;;;;4872685;29;20248;-79
2021/05/11 18:02:28;;;;;;;0.73;0.73;;;;;;;;;;4888393;29;20233;-80
2021/05/11 18:04:56;;;;;;;1.80;0.80;;;;;;;;;;4886733;29;20244;-79
2021/05/11 18:07:25;;;;;;;1.70;0.70;;;;;;;;;;4886153;29;20240;-80
2021/05/11 18:09:53;;;;;;;1.47;0.70;;;;;;;;;;4887219;29;20248;-81
2021/05/11 18:12:22;;;;;;;1.47;0.80;;;;;;;;;;4871189;29;20235;-80
2021/05/11 18:14:50;;;;;;;1.87;0.80;;;;;;;;;;4888057;29;20233;-82
2021/05/11 18:17:18;;;;;;;0.70;0.70;;;;;;;;;;4882931;29;20228;-80
2021/05/11 18:19:46;;;;;;;0.60;0.60;;;;;;;;;;4885133;29;20245;-81
2021/05/11 18:22:14;;;;;;;1.90;0.70;;;;;;;;;;4900127;29;20235;-80
2021/05/11 18:24:43;;;;;;;1.00;0.60;;;;;;;;;;4876465;29;20237;-80
2021/05/11 18:27:11;;;;;;;1.47;0.80;;;;;;;;;;4870438;29;20239;-82
2021/05/11 18:29:39;;;;;;;0.80;0.80;;;;;;;;;;4871578;29;20240;-80
2021/05/11 18:32:07;;;;;;;0.90;0.70;;;;;;;;;;4886047;29;20233;-80
2021/05/11 18:34:38;;;;;;;1.47;0.60;;;;;;;;;;4885848;29;20236;-83
2021/05/11 18:37:11;;;;;;;1.10;0.80;;;;;;;;;;4880081;29;20225;-81